sensor_id;sensor_type;location;lat;lon;timestamp;pressure;altitude;pressure_sealevel;temperature;humidity
65157;BME280;52745;49.794;18.258;2022-12-20T00:01:30;-15931.91;;;-0.21;82.90
65157;BME280;52745;49.794;18.258;2022-12-20T00:03:59;-15929.69;;;-0.29;83.15
65157;BME280;52745;49.794;18.258;2022-12-20T00:06:27;-15931.22;;;-0.23;83.14
65157;BME280;52745;49.794;18.258;2022-12-20T00:08:57;-15928.88;;;-0.32;83.21
65157;BME280;52745;49.794;18.258;2022-12-20T00:11:25;-15926.53;;;-0.40;83.84
65157;BME280;52745;49.794;18.258;2022-12-20T00:13:52;-15927.22;;;-0.38;84.18
65157;BME280;52745;49.794;18.258;2022-12-20T00:16:20;-15927.66;;;-0.36;84.23
65157;BME280;52745;49.794;18.258;2022-12-20T00:19:00;-15927.38;;;-0.37;83.76
65157;BME280;52745;49.794;18.258;2022-12-20T00:21:27;-15927.91;;;-0.35;83.75
65157;BME280;52745;49.794;18.258;2022-12-20T00:23:55;-15928.19;;;-0.34;83.60
65157;BME280;52745;49.794;18.258;2022-12-20T00:26:24;-15930.13;;;-0.27;83.81
65157;BME280;52745;49.794;18.258;2022-12-20T00:28:51;-15929.44;;;-0.30;83.45
65157;BME280;52745;49.794;18.258;2022-12-20T00:31:19;-15930.53;;;-0.26;84.24
65157;BME280;52745;49.794;18.258;2022-12-20T00:33:48;-15929.28;;;-0.30;85.71
65157;BME280;52745;49.794;18.258;2022-12-20T00:36:16;-15929.44;;;-0.30;86.61
65157;BME280;52745;49.794;18.258;2022-12-20T00:38:50;-15927.50;;;-0.37;87.55
65157;BME280;52745;49.794;18.258;2022-12-20T00:41:18;-15926.69;;;-0.40;88.42
65157;BME280;52745;49.794;18.258;2022-12-20T00:43:45;-15924.75;;;-0.47;90.41
65157;BME280;52745;49.794;18.258;2022-12-20T00:46:13;-15923.81;;;-0.51;90.59
65157;BME280;52745;49.794;18.258;2022-12-20T00:48:40;-15922.97;;;-0.54;91.06
65157;BME280;52745;49.794;18.258;2022-12-20T00:51:09;-15923.41;;;-0.52;90.96
65157;BME280;52745;49.794;18.258;2022-12-20T00:53:37;-15921.88;;;-0.58;91.43
65157;BME280;52745;49.794;18.258;2022-12-20T00:56:04;-15922.16;;;-0.57;91.40
65157;BME280;52745;49.794;18.258;2022-12-20T00:58:36;-15922.16;;;-0.57;90.76
65157;BME280;52745;49.794;18.258;2022-12-20T01:01:04;-15921.47;;;-0.59;90.73
65157;BME280;52745;49.794;18.258;2022-12-20T01:03:31;-15921.34;;;-0.60;90.51
65157;BME280;52745;49.794;18.258;2022-12-20T01:05:59;-15922.44;;;-0.56;90.68
65157;BME280;52745;49.794;18.258;2022-12-20T01:08:28;-15922.56;;;-0.55;89.48
65157;BME280;52745;49.794;18.258;2022-12-20T01:11:13;-15924.50;;;-0.48;89.43
65157;BME280;52745;49.794;18.258;2022-12-20T01:13:43;-15925.72;;;-0.44;88.93
65157;BME280;52745;49.794;18.258;2022-12-20T01:16:13;-15926.69;;;-0.40;88.23
65157;BME280;52745;49.794;18.258;2022-12-20T01:18:40;-15927.38;;;-0.37;88.31
65157;BME280;52745;49.794;18.258;2022-12-20T01:21:09;-15926.81;;;-0.39;87.57
65157;BME280;52745;49.794;18.258;2022-12-20T01:23:37;-15931.06;;;-0.24;86.90
65157;BME280;52745;49.794;18.258;2022-12-20T01:26:07;-15933.00;;;-0.16;85.78
65157;BME280;52745;49.794;18.258;2022-12-20T01:28:37;-15934.63;;;-0.10;85.99
65157;BME280;52745;49.794;18.258;2022-12-20T01:31:08;-15934.91;;;-0.09;85.34
65157;BME280;52745;49.794;18.258;2022-12-20T01:33:36;-15934.09;;;-0.12;85.22
65157;BME280;52745;49.794;18.258;2022-12-20T01:36:05;-15933.41;;;-0.15;85.03
65157;BME280;52745;49.794;18.258;2022-12-20T01:38:32;-15933.69;;;-0.14;84.77
65157;BME280;52745;49.794;18.258;2022-12-20T01:40:59;-15932.56;;;-0.18;84.77
65157;BME280;52745;49.794;18.258;2022-12-20T01:43:53;-15933.53;;;-0.14;84.62
65157;BME280;52745;49.794;18.258;2022-12-20T01:46:21;-15934.09;;;-0.12;84.85
65157;BME280;52745;49.794;18.258;2022-12-20T01:48:57;-15933.13;;;-0.16;84.86
65157;BME280;52745;49.794;18.258;2022-12-20T01:51:26;-15933.00;;;-0.16;84.56
65157;BME280;52745;49.794;18.258;2022-12-20T01:54:01;-15931.91;;;-0.21;84.70
65157;BME280;52745;49.794;18.258;2022-12-20T01:56:28;-15932.03;;;-0.20;84.91
65157;BME280;52745;49.794;18.258;2022-12-20T01:58:56;-15930.94;;;-0.24;84.60
65157;BME280;52745;49.794;18.258;2022-12-20T02:01:24;-15931.22;;;-0.23;85.01
65157;BME280;52745;49.794;18.258;2022-12-20T02:03:53;-15930.25;;;-0.27;85.00
65157;BME280;52745;49.794;18.258;2022-12-20T02:06:23;-15926.97;;;-0.39;86.13
65157;BME280;52745;49.794;18.258;2022-12-20T02:08:51;-15925.19;;;-0.46;86.01
65157;BME280;52745;49.794;18.258;2022-12-20T02:11:57;-15924.50;;;-0.48;86.69
65157;BME280;52745;49.794;18.258;2022-12-20T02:23:20;-15925.59;;;-0.44;86.87
65157;BME280;52745;49.794;18.258;2022-12-20T02:26:25;-15927.91;;;-0.35;85.96
65157;BME280;52745;49.794;18.258;2022-12-20T02:34:34;-15930.78;;;-0.25;85.44
65157;BME280;52745;49.794;18.258;2022-12-20T02:37:01;-15928.75;;;-0.32;85.44
65157;BME280;52745;49.794;18.258;2022-12-20T02:39:30;-15929.00;;;-0.31;85.71
65157;BME280;52745;49.794;18.258;2022-12-20T02:42:00;-15928.34;;;-0.34;85.19
65157;BME280;52745;49.794;18.258;2022-12-20T02:44:31;-15926.41;;;-0.41;85.52
65157;BME280;52745;49.794;18.258;2022-12-20T02:47:23;-15922.56;;;-0.55;86.05
65157;BME280;52745;49.794;18.258;2022-12-20T02:49:52;-15920.94;;;-0.61;87.00
65157;BME280;52745;49.794;18.258;2022-12-20T02:52:22;-15918.06;;;-0.72;87.21
65157;BME280;52745;49.794;18.258;2022-12-20T02:54:53;-15914.06;;;-0.87;87.73
65157;BME280;52745;49.794;18.258;2022-12-20T02:57:33;-15910.38;;;-1.01;89.11
65157;BME280;52745;49.794;18.258;2022-12-20T03:00:08;-15906.81;;;-1.14;90.07
65157;BME280;52745;49.794;18.258;2022-12-20T03:02:37;-15904.63;;;-1.22;90.42
65157;BME280;52745;49.794;18.258;2022-12-20T03:05:25;-15904.63;;;-1.22;90.65
65157;BME280;52745;49.794;18.258;2022-12-20T03:07:53;-15902.28;;;-1.31;90.72
65157;BME280;52745;49.794;18.258;2022-12-20T03:10:22;-15900.63;;;-1.37;91.68
65157;BME280;52745;49.794;18.258;2022-12-20T03:12:49;-15899.53;;;-1.41;91.76
65157;BME280;52745;49.794;18.258;2022-12-20T03:15:16;-15897.06;;;-1.51;91.98
65157;BME280;52745;49.794;18.258;2022-12-20T03:17:43;-15896.38;;;-1.53;92.37
65157;BME280;52745;49.794;18.258;2022-12-20T03:20:10;-15895.16;;;-1.58;92.78
65157;BME280;52745;49.794;18.258;2022-12-20T03:22:37;-15894.59;;;-1.60;93.27
65157;BME280;52745;49.794;18.258;2022-12-20T03:25:04;-15893.50;;;-1.64;93.01
65157;BME280;52745;49.794;18.258;2022-12-20T03:27:33;-15894.47;;;-1.60;93.26
65157;BME280;52745;49.794;18.258;2022-12-20T03:30:01;-15894.88;;;-1.59;93.74
65157;BME280;52745;49.794;18.258;2022-12-20T03:32:32;-15894.06;;;-1.62;93.60
65157;BME280;52745;49.794;18.258;2022-12-20T03:34:58;-15893.91;;;-1.62;93.69
65157;BME280;52745;49.794;18.258;2022-12-20T03:37:31;-15893.50;;;-1.64;94.21
65157;BME280;52745;49.794;18.258;2022-12-20T03:40:00;-15893.50;;;-1.64;94.01
65157;BME280;52745;49.794;18.258;2022-12-20T03:42:27;-15892.53;;;-1.68;94.76
65157;BME280;52745;49.794;18.258;2022-12-20T03:44:53;-15893.09;;;-1.65;94.33
65157;BME280;52745;49.794;18.258;2022-12-20T03:47:22;-15893.66;;;-1.63;94.78
65157;BME280;52745;49.794;18.258;2022-12-20T03:49:49;-15893.38;;;-1.64;94.90
65157;BME280;52745;49.794;18.258;2022-12-20T03:52:17;-15894.88;;;-1.59;94.30
65157;BME280;52745;49.794;18.258;2022-12-20T03:54:43;-15894.47;;;-1.60;94.40
65157;BME280;52745;49.794;18.258;2022-12-20T03:57:19;-15896.25;;;-1.54;94.10
65157;BME280;52745;49.794;18.258;2022-12-20T03:59:48;-15896.66;;;-1.52;94.17
65157;BME280;52745;49.794;18.258;2022-12-20T04:02:17;-15896.66;;;-1.52;93.95
65157;BME280;52745;49.794;18.258;2022-12-20T04:04:43;-15897.06;;;-1.51;94.12
65157;BME280;52745;49.794;18.258;2022-12-20T04:07:10;-15898.44;;;-1.46;94.28
65157;BME280;52745;49.794;18.258;2022-12-20T04:09:39;-15897.34;;;-1.50;94.59
65157;BME280;52745;49.794;18.258;2022-12-20T04:12:10;-15896.25;;;-1.54;94.73
65157;BME280;52745;49.794;18.258;2022-12-20T04:14:38;-15895.97;;;-1.55;95.26
65157;BME280;52745;49.794;18.258;2022-12-20T04:17:05;-15896.53;;;-1.53;94.53
65157;BME280;52745;49.794;18.258;2022-12-20T04:19:33;-15897.91;;;-1.48;95.13
65157;BME280;52745;49.794;18.258;2022-12-20T04:22:00;-15898.16;;;-1.47;94.93
65157;BME280;52745;49.794;18.258;2022-12-20T04:24:33;-15899.53;;;-1.41;94.67
65157;BME280;52745;49.794;18.258;2022-12-20T04:27:29;-15900.63;;;-1.37;94.61
65157;BME280;52745;49.794;18.258;2022-12-20T04:29:56;-15902.28;;;-1.31;94.67
65157;BME280;52745;49.794;18.258;2022-12-20T04:32:23;-15903.09;;;-1.28;94.19
65157;BME280;52745;49.794;18.258;2022-12-20T04:34:50;-15903.38;;;-1.27;94.13
65157;BME280;52745;49.794;18.258;2022-12-20T04:37:17;-15904.63;;;-1.22;93.86
65157;BME280;52745;49.794;18.258;2022-12-20T04:39:51;-15905.97;;;-1.17;93.86
65157;BME280;52745;49.794;18.258;2022-12-20T04:42:43;-15903.09;;;-1.28;94.05
65157;BME280;52745;49.794;18.258;2022-12-20T04:45:12;-15904.06;;;-1.25;94.47
65157;BME280;52745;49.794;18.258;2022-12-20T04:47:38;-15904.47;;;-1.23;94.20
65157;BME280;52745;49.794;18.258;2022-12-20T04:50:06;-15905.44;;;-1.19;93.75
65157;BME280;52745;49.794;18.258;2022-12-20T04:52:33;-15905.72;;;-1.18;93.81
65157;BME280;52745;49.794;18.258;2022-12-20T04:55:19;-15906.13;;;-1.17;94.26
65157;BME280;52745;49.794;18.258;2022-12-20T04:57:46;-15905.56;;;-1.19;94.35
65157;BME280;52745;49.794;18.258;2022-12-20T05:00:14;-15905.84;;;-1.18;93.75
65157;BME280;52745;49.794;18.258;2022-12-20T05:02:45;-15904.47;;;-1.23;93.92
65157;BME280;52745;49.794;18.258;2022-12-20T05:05:15;-15905.28;;;-1.20;93.83
65157;BME280;52745;49.794;18.258;2022-12-20T05:07:48;-15904.47;;;-1.23;94.18
65157;BME280;52745;49.794;18.258;2022-12-20T05:10:16;-15903.66;;;-1.26;94.57
65157;BME280;52745;49.794;18.258;2022-12-20T05:12:43;-15904.06;;;-1.25;94.43
65157;BME280;52745;49.794;18.258;2022-12-20T05:15:17;-15902.69;;;-1.30;94.33
65157;BME280;52745;49.794;18.258;2022-12-20T05:17:44;-15903.38;;;-1.27;94.54
65157;BME280;52745;49.794;18.258;2022-12-20T05:20:12;-15903.94;;;-1.25;94.91
65157;BME280;52745;49.794;18.258;2022-12-20T05:22:41;-15904.34;;;-1.23;94.38
65157;BME280;52745;49.794;18.258;2022-12-20T05:25:26;-15904.47;;;-1.23;94.60
65157;BME280;52745;49.794;18.258;2022-12-20T05:28:13;-15905.16;;;-1.20;94.34
65157;BME280;52745;49.794;18.258;2022-12-20T05:30:39;-15905.03;;;-1.21;94.47
65157;BME280;52745;49.794;18.258;2022-12-20T05:33:06;-15905.56;;;-1.19;93.96
65157;BME280;52745;49.794;18.258;2022-12-20T05:35:33;-15904.88;;;-1.21;94.48
65157;BME280;52745;49.794;18.258;2022-12-20T05:38:05;-15904.75;;;-1.22;93.96
65157;BME280;52745;49.794;18.258;2022-12-20T05:40:32;-15905.56;;;-1.19;93.78
65157;BME280;52745;49.794;18.258;2022-12-20T05:42:59;-15905.84;;;-1.18;93.73
65157;BME280;52745;49.794;18.258;2022-12-20T05:45:34;-15907.06;;;-1.13;93.95
65157;BME280;52745;49.794;18.258;2022-12-20T05:48:05;-15907.91;;;-1.10;93.72
65157;BME280;52745;49.794;18.258;2022-12-20T05:50:34;-15906.66;;;-1.15;93.56
65157;BME280;52745;49.794;18.258;2022-12-20T05:53:20;-15907.22;;;-1.13;93.64
65157;BME280;52745;49.794;18.258;2022-12-20T05:55:52;-15907.50;;;-1.12;93.70
65157;BME280;52745;49.794;18.258;2022-12-20T05:58:20;-15907.06;;;-1.13;93.33
65157;BME280;52745;49.794;18.258;2022-12-20T06:00:54;-15905.84;;;-1.18;93.88
65157;BME280;52745;49.794;18.258;2022-12-20T06:03:22;-15905.56;;;-1.19;93.80
65157;BME280;52745;49.794;18.258;2022-12-20T06:05:49;-15905.16;;;-1.20;94.16
65157;BME280;52745;49.794;18.258;2022-12-20T06:08:22;-15905.56;;;-1.19;94.08
65157;BME280;52745;49.794;18.258;2022-12-20T06:10:50;-15906.41;;;-1.16;93.88
65157;BME280;52745;49.794;18.258;2022-12-20T06:13:18;-15906.81;;;-1.14;94.11
65157;BME280;52745;49.794;18.258;2022-12-20T06:15:45;-15908.31;;;-1.09;94.22
65157;BME280;52745;49.794;18.258;2022-12-20T06:18:12;-15909.00;;;-1.06;94.28
65157;BME280;52745;49.794;18.258;2022-12-20T06:20:39;-15909.56;;;-1.04;93.91
65157;BME280;52745;49.794;18.258;2022-12-20T06:23:06;-15909.41;;;-1.05;93.67
65157;BME280;52745;49.794;18.258;2022-12-20T06:25:40;-15909.69;;;-1.03;93.70
65157;BME280;52745;49.794;18.258;2022-12-20T06:28:07;-15911.34;;;-0.97;93.54
65157;BME280;52745;49.794;18.258;2022-12-20T06:30:33;-15911.06;;;-0.98;93.65
65157;BME280;52745;49.794;18.258;2022-12-20T06:33:09;-15911.34;;;-0.97;93.50
65157;BME280;52745;49.794;18.258;2022-12-20T06:35:35;-15908.88;;;-1.07;93.73
65157;BME280;52745;49.794;18.258;2022-12-20T06:38:02;-15907.63;;;-1.11;94.22
65157;BME280;52745;49.794;18.258;2022-12-20T06:40:32;-15907.91;;;-1.10;94.00
65157;BME280;52745;49.794;18.258;2022-12-20T06:43:00;-15906.81;;;-1.14;94.57
65157;BME280;52745;49.794;18.258;2022-12-20T06:45:27;-15908.03;;;-1.10;94.18
65157;BME280;52745;49.794;18.258;2022-12-20T06:47:56;-15907.78;;;-1.11;94.51
65157;BME280;52745;49.794;18.258;2022-12-20T06:50:23;-15908.44;;;-1.08;94.38
65157;BME280;52745;49.794;18.258;2022-12-20T06:52:50;-15907.22;;;-1.13;94.47
65157;BME280;52745;49.794;18.258;2022-12-20T06:55:16;-15907.06;;;-1.13;94.72
65157;BME280;52745;49.794;18.258;2022-12-20T06:57:44;-15908.19;;;-1.09;94.41
65157;BME280;52745;49.794;18.258;2022-12-20T07:00:11;-15908.59;;;-1.08;94.25
65157;BME280;52745;49.794;18.258;2022-12-20T07:02:41;-15912.97;;;-0.91;95.07
65157;BME280;52745;49.794;18.258;2022-12-20T07:05:07;-15913.38;;;-0.90;93.85
65157;BME280;52745;49.794;18.258;2022-12-20T07:07:34;-15919.28;;;-0.68;97.05
65157;BME280;52745;49.794;18.258;2022-12-20T07:10:00;-15924.34;;;-0.49;98.22
65157;BME280;52745;49.794;18.258;2022-12-20T07:12:27;-15931.34;;;-0.23;95.75
65157;BME280;52745;49.794;18.258;2022-12-20T07:14:53;-15931.91;;;-0.21;93.64
65157;BME280;52745;49.794;18.258;2022-12-20T07:17:20;-15927.78;;;-0.36;91.89
65157;BME280;52745;49.794;18.258;2022-12-20T07:19:47;-15922.44;;;-0.56;91.86
65157;BME280;52745;49.794;18.258;2022-12-20T07:22:14;-15918.72;;;-0.70;92.54
65157;BME280;52745;49.794;18.258;2022-12-20T07:24:42;-15918.59;;;-0.70;92.58
65157;BME280;52745;49.794;18.258;2022-12-20T07:27:09;-15918.06;;;-0.72;92.37
65157;BME280;52745;49.794;18.258;2022-12-20T07:29:36;-15919.69;;;-0.66;92.52
65157;BME280;52745;49.794;18.258;2022-12-20T07:32:05;-15918.47;;;-0.71;92.17
65157;BME280;52745;49.794;18.258;2022-12-20T07:34:31;-15916.28;;;-0.79;92.85
65157;BME280;52745;49.794;18.258;2022-12-20T07:36:58;-15915.31;;;-0.82;92.62
65157;BME280;52745;49.794;18.258;2022-12-20T07:39:26;-15915.72;;;-0.81;92.54
65157;BME280;52745;49.794;18.258;2022-12-20T07:41:54;-15917.22;;;-0.75;92.27
65157;BME280;52745;49.794;18.258;2022-12-20T07:44:24;-15919.97;;;-0.65;92.04
65157;BME280;52745;49.794;18.258;2022-12-20T07:46:51;-15919.97;;;-0.65;91.93
65157;BME280;52745;49.794;18.258;2022-12-20T07:49:18;-15920.25;;;-0.64;91.59
65157;BME280;52745;49.794;18.258;2022-12-20T07:51:47;-15921.47;;;-0.59;91.23
65157;BME280;52745;49.794;18.258;2022-12-20T07:54:19;-15920.78;;;-0.62;91.08
65157;BME280;52745;49.794;18.258;2022-12-20T07:56:50;-15920.94;;;-0.61;91.07
65157;BME280;52745;49.794;18.258;2022-12-20T07:59:21;-15922.03;;;-0.57;90.46
65157;BME280;52745;49.794;18.258;2022-12-20T08:01:49;-15921.06;;;-0.61;90.92
65157;BME280;52745;49.794;18.258;2022-12-20T08:04:19;-15921.63;;;-0.59;90.74
65157;BME280;52745;49.794;18.258;2022-12-20T08:06:49;-15921.88;;;-0.58;90.21
65157;BME280;52745;49.794;18.258;2022-12-20T08:09:18;-15922.72;;;-0.55;90.09
65157;BME280;52745;49.794;18.258;2022-12-20T08:11:48;-15923.25;;;-0.53;90.11
65157;BME280;52745;49.794;18.258;2022-12-20T08:14:16;-15923.94;;;-0.50;90.41
65157;BME280;52745;49.794;18.258;2022-12-20T08:16:43;-15925.31;;;-0.45;89.93
65157;BME280;52745;49.794;18.258;2022-12-20T08:19:10;-15926.97;;;-0.39;89.39
65157;BME280;52745;49.794;18.258;2022-12-20T08:21:37;-15927.50;;;-0.37;89.96
65157;BME280;52745;49.794;18.258;2022-12-20T08:24:04;-15929.44;;;-0.30;89.50
65157;BME280;52745;49.794;18.258;2022-12-20T08:26:30;-15928.59;;;-0.33;89.02
65157;BME280;52745;49.794;18.258;2022-12-20T08:28:57;-15932.44;;;-0.18;89.11
65157;BME280;52745;49.794;18.258;2022-12-20T08:31:23;-15934.63;;;-0.10;88.35
65157;BME280;52745;49.794;18.258;2022-12-20T08:33:53;-15936.97;;;-0.02;87.90
65157;BME280;52745;49.794;18.258;2022-12-20T08:36:20;-15938.63;;;0.05;87.04
65157;BME280;52745;49.794;18.258;2022-12-20T08:38:46;-15941.34;;;0.15;87.00
65157;BME280;52745;49.794;18.258;2022-12-20T08:41:14;-15942.31;;;0.18;86.04
65157;BME280;52745;49.794;18.258;2022-12-20T08:43:41;-15947.09;;;0.36;84.99
65157;BME280;52745;49.794;18.258;2022-12-20T08:46:09;-15951.09;;;0.51;84.96
65157;BME280;52745;49.794;18.258;2022-12-20T08:48:35;-15953.00;;;0.58;84.56
65157;BME280;52745;49.794;18.258;2022-12-20T08:51:07;-15952.44;;;0.56;83.75
65157;BME280;52745;49.794;18.258;2022-12-20T08:53:35;-15949.72;;;0.46;84.23
65157;BME280;52745;49.794;18.258;2022-12-20T08:56:09;-15947.25;;;0.37;85.52
65157;BME280;52745;49.794;18.258;2022-12-20T08:58:36;-15944.50;;;0.27;85.11
65157;BME280;52745;49.794;18.258;2022-12-20T09:01:05;-15945.59;;;0.31;84.81
65157;BME280;52745;49.794;18.258;2022-12-20T09:03:32;-15944.50;;;0.27;85.40
65157;BME280;52745;49.794;18.258;2022-12-20T09:05:59;-15945.75;;;0.31;85.27
65157;BME280;52745;49.794;18.258;2022-12-20T09:08:25;-15951.09;;;0.51;84.71
65157;BME280;52745;49.794;18.258;2022-12-20T09:10:52;-15954.38;;;0.64;84.15
65157;BME280;52745;49.794;18.258;2022-12-20T09:13:19;-15955.47;;;0.68;83.82
65157;BME280;52745;49.794;18.258;2022-12-20T09:15:47;-15954.66;;;0.65;83.00
65157;BME280;52745;49.794;18.258;2022-12-20T09:18:13;-15962.88;;;0.95;82.78
65157;BME280;52745;49.794;18.258;2022-12-20T09:20:43;-15959.16;;;0.81;82.45
65157;BME280;52745;49.794;18.258;2022-12-20T09:23:10;-15959.03;;;0.81;82.35
65157;BME280;52745;49.794;18.258;2022-12-20T09:25:37;-15953.13;;;0.59;82.50
65157;BME280;52745;49.794;18.258;2022-12-20T09:28:04;-15959.31;;;0.82;81.71
65157;BME280;52745;49.794;18.258;2022-12-20T09:30:30;-15960.53;;;0.87;81.33
65157;BME280;52745;49.794;18.258;2022-12-20T09:32:57;-15961.50;;;0.90;81.90
65157;BME280;52745;49.794;18.258;2022-12-20T09:35:24;-15970.00;;;1.22;80.65
65157;BME280;52745;49.794;18.258;2022-12-20T09:37:52;-15975.47;;;1.42;79.25
65157;BME280;52745;49.794;18.258;2022-12-20T09:40:21;-15976.97;;;1.48;78.07
65157;BME280;52745;49.794;18.258;2022-12-20T09:42:50;-15971.63;;;1.28;79.38
65157;BME280;52745;49.794;18.258;2022-12-20T09:45:24;-15975.34;;;1.42;78.94
65157;BME280;52745;49.794;18.258;2022-12-20T09:47:51;-15966.00;;;1.07;79.83
65157;BME280;52745;49.794;18.258;2022-12-20T09:50:20;-15962.59;;;0.94;81.21
65157;BME280;52745;49.794;18.258;2022-12-20T09:53:21;-15956.84;;;0.73;81.88
65157;BME280;52745;49.794;18.258;2022-12-20T09:55:57;-15957.66;;;0.76;82.04
65157;BME280;52745;49.794;18.258;2022-12-20T10:00:54;-15966.16;;;1.08;80.82
65157;BME280;52745;49.794;18.258;2022-12-20T10:03:31;-15968.47;;;1.16;80.97
65157;BME280;52745;49.794;18.258;2022-12-20T10:09:09;-15984.09;;;1.75;77.82
65157;BME280;52745;49.794;18.258;2022-12-20T10:17:09;-16054.44;;;4.38;66.99
65157;BME280;52745;49.794;18.258;2022-12-20T10:20:06;-16013.41;;;2.84;69.88
65157;BME280;52745;49.794;18.258;2022-12-20T10:22:47;-16025.84;;;3.31;70.53
65157;BME280;52745;49.794;18.258;2022-12-20T10:25:19;-16004.63;;;2.52;72.24
65157;BME280;52745;49.794;18.258;2022-12-20T10:27:47;-16001.50;;;2.40;73.70
65157;BME280;52745;49.794;18.258;2022-12-20T10:30:19;-16012.31;;;2.80;72.42
65157;BME280;52745;49.794;18.258;2022-12-20T10:32:50;-16009.28;;;2.69;72.41
65157;BME280;52745;49.794;18.258;2022-12-20T10:35:47;-16006.56;;;2.59;72.76
65157;BME280;52745;49.794;18.258;2022-12-20T10:38:13;-15996.69;;;2.22;73.60
65157;BME280;52745;49.794;18.258;2022-12-20T10:40:46;-15989.16;;;1.94;74.69
65157;BME280;52745;49.794;18.258;2022-12-20T10:43:19;-15992.19;;;2.05;74.62
65157;BME280;52745;49.794;18.258;2022-12-20T10:48:32;-15970.00;;;1.22;77.88
65157;BME280;52745;49.794;18.258;2022-12-20T10:51:20;-15971.09;;;1.26;78.37
